• Join FlightAware (Why Join?)
  • Login
  • US Flag 
Trick or treat! (Boo!!) 
11:13AM EDT


 

Airport Tracker/Info


-or-


 

Live Flight TrackerFlight Track Log ✈ N319EE ✈ 30-Dec-2013 ✈ KBGM - KPWM

Flight Track Log - Related Links

Times and Time Zones

All times are in EST time to prevent confusion due to time zone crossing. See the N319EE flight status page for this flight to view local times or setup timezone preferences in your user account.

Time Position Orientation Groundspeed Altitude Reporting Facility
EST Latitude Longitude Course Direction KTS MPH feet Rate Location/Type
07:54AM 42.2378 -75.9925 61° Northeast 151 174 3,400  Level Boston Center
07:55AM 42.2608 -75.9364 61° Northeast 171 197 5,400 2,160 Climbing Boston Center
07:56AM 42.2808 -75.8689 68° East 194 223 7,800 1,860 Climbing Boston Center
07:57AM 42.3006 -75.8064 67° East 208 239 9,300 1,740 Climbing Boston Center
07:58AM 42.3289 -75.7117 68° East 226 260 11,400 1,860 Climbing Boston Center
07:59AM 42.3519 -75.6181 72° East 257 296 13,100 1,740 Climbing Boston Center
08:00AM 42.3781 -75.5219 70° East 273 314 15,000 1,740 Climbing Boston Center
08:01AM 42.4050 -75.4189 70° East 291 335 16,700 1,500 Climbing Boston Center
08:02AM 42.4342 -75.3150 69° East 302 348 18,100 1,380 Climbing Boston Center
08:03AM 42.4636 -75.2047 70° East 312 359 19,500 1,200 Climbing Boston Center
08:04AM 42.4933 -75.0931 70° East 318 366 20,600 720 Climbing Boston Center
08:05AM 42.5253 -74.9722 70° East 343 395 21,000 180 Climbing Boston Center
08:06AM 42.5578 -74.8453 71° East 364 419 21,000  Level Boston Center
08:07AM 42.5961 -74.7092 69° East 381 438 21,000  Level Boston Center
08:08AM 42.6317 -74.5756 70° East 382 440 21,000  Level Boston Center
08:09AM 42.6664 -74.4425 70° East 377 434 21,000  Level Boston Center
08:10AM 42.7014 -74.3086 70° East 378 435 21,000  Level Boston Center
08:11AM 42.7417 -74.1489 71° East 375 432 21,000  Level Boston Center
08:12AM 42.7733 -74.0225 71° East 376 433 21,000  Level Boston Center
08:13AM 42.8081 -73.8886 70° East 376 433 21,000  Level Boston Center
08:14AM 42.8417 -73.7553 71° East 373 429 21,000  Level Boston Center
08:15AM 42.8764 -73.6150 71° East 375 432 21,000  Level Boston Center
08:16AM 42.9108 -73.4817 71° East 375 432 21,000  Level Boston Center
08:17AM 42.9431 -73.3511 71° East 375 432 21,000  Level Boston Center
08:18AM 42.9767 -73.2161 71° East 375 432 21,000  Level Boston Center
08:19AM 43.0094 -73.0794 72° East 377 434 21,000  Level Boston Center
08:20AM 43.0464 -72.9308 71° East 370 426 21,000  Level Boston Center
08:21AM 43.0775 -72.7997 72° East 365 420 21,000  Level Boston Center
08:22AM 43.1097 -72.6664 72° East 368 423 21,000  Level Boston Center
08:23AM 43.1400 -72.5478 71° East 373 429 21,000  Level Boston Center
08:24AM 43.1708 -72.4147 72° East 368 423 21,000  Level Boston Center
08:25AM 43.2028 -72.2811 72° East 368 423 21,000  Level Boston Center
08:26AM 43.2342 -72.1472 72° East 368 423 21,000  Level Boston Center
08:27AM 43.2717 -71.9869 72° East 368 423 21,000  Level Boston Center
08:28AM 43.3036 -71.8539 72° East 368 423 21,000 -720 Level Boston Center
08:29AM 43.3342 -71.7136 73° East 384 442 19,600 -1,920 Descending Boston Center
08:30AM 43.3686 -71.5619 73° East 406 467 17,200 -2,280 Descending Boston Center
08:31AM 43.4008 -71.4194 73° East 391 450 15,100 -2,040 Descending Boston Center
08:32AM 43.4311 -71.2850 73° East 370 426 13,100 -2,040 Descending Boston Center
08:33AM 43.4628 -71.1447 73° East 357 411 11,100 -1,080 Descending Boston Center
08:34AM 43.4953 -71.0253 69° East 337 388 11,000 -720 Descending Boston Center
08:35AM 43.5269 -70.9072 70° East 330 380 9,700 -1,320 Descending Boston Center
08:36AM 43.5511 -70.7939 74° East 321 369 8,300 -1,500 Descending Boston Center
08:37AM 43.5717 -70.6692 77° East 310 357 6,700 -1,920 Descending Boston Center
08:38AM 43.5856 -70.5714 79° East 259 298 4,600 -1,800 Descending Boston Center
08:39AM 43.5897 -70.4858 86° East 228 262 3,100 -1,200 Descending Boston Center
08:41AM 43.5950 -70.3989 85° East 228 262 2,200 -780 Descending Boston Center
08:42AM 43.6047 -70.3172 81° East 220 253 1,600 -660 Descending Boston Center
08:43AM 43.6225 -70.2583 67° East 179 206 900 -600 Descending Boston Center
08:44AM 43.6439 -70.2858 317° Northwest 125 144 400 -420 Descending Boston Center
08:45AM 43.6458 -70.3208 274° West 119 137 100 -300 Descending Boston Center
08:47AM 43.6456 -70.3086 90° East  Level Estimated